Terminal Aerodrome Forecast
Issued by NWS El Paso, TX

Home | Current Version | Previous Version | Text Only | Print | Product List | Glossary On
Versions: 1 2 3 4 5 6 7 8 9 10 11
000
FTUS44 KEPZ 250500
TAFELP
TAF
KELP 250540Z 2506/2606 16007KT P6SM BKN250
     FM251500 21012G20KT P6SM FEW150 BKN230
     FM251800 25025G35KT P6SM SCT150 BKN230
     FM260200 24013KT P6SM SCT130 OVC190=

USA.gov is the U.S. government's official web portal to all federal, state and local government web resources and services.